Time;durP1;ratioP1;P1;durP2;ratioP2;P2;SDS_P1;SDS_P2;PMS_P1;PMS_P2;Temp;Humidity;BMP_temperature;BMP_pressure;BME280_temperature;BME280_humidity;BME280_pressure;Samples;Min_cycle;Max_cycle;Signal;HPM_P1;HPM_P2
2022/05/09 03:00:34;;;;;;;0.90;0.90;;;16.00;74.70;;;;;;6109493;23;21097;31
2022/05/09 03:05:48;;;;;;;1.00;1.00;;;16.00;74.70;;;;;;4957501;29;20915;-67
2022/05/09 03:08:17;;;;;;;1.00;1.00;;;16.00;74.60;;;;;;4957525;29;20455;-67
2022/05/09 03:10:44;;;;;;;0.87;0.87;;;15.90;74.80;;;;;;4957342;28;20494;-68
2022/05/09 03:13:13;;;;;;;0.90;0.90;;;15.90;74.80;;;;;;4957510;29;20795;-67
2022/05/09 03:15:44;;;;;;;1.00;1.00;;;15.90;74.90;;;;;;4958545;28;20459;-68
2022/05/09 03:18:12;;;;;;;0.97;0.97;;;15.90;74.80;;;;;;4957490;29;20438;-67
2022/05/09 03:20:39;;;;;;;1.00;1.00;;;15.90;74.60;;;;;;4957553;29;20442;-68
2022/05/09 03:23:07;;;;;;;0.90;0.90;;;15.90;74.70;;;;;;4958084;29;20490;-67
2022/05/09 03:25:35;;;;;;;0.90;0.90;;;15.90;74.70;;;;;;4957584;29;20846;-68
2022/05/09 03:28:03;;;;;;;0.90;0.90;;;15.90;74.70;;;;;;4957543;28;20935;-68
2022/05/09 03:30:30;;;;;;;1.00;1.00;;;15.80;74.60;;;;;;4955553;28;20903;-69
2022/05/09 03:32:58;;;;;;;0.90;0.90;;;15.80;74.70;;;;;;4957240;28;20455;-68
2022/05/09 03:35:24;;;;;;;1.10;1.10;;;15.80;74.70;;;;;;4957149;28;20485;-67
2022/05/09 03:37:52;;;;;;;1.20;1.20;;;15.80;74.80;;;;;;4956906;29;20506;-67
2022/05/09 03:40:20;;;;;;;0.90;0.90;;;15.80;74.80;;;;;;4956989;29;20442;-67
2022/05/09 03:42:48;;;;;;;1.10;1.10;;;15.80;75.00;;;;;;4956905;28;20451;-68
2022/05/09 03:45:15;;;;;;;0.90;0.90;;;15.80;75.00;;;;;;4956835;29;20506;-67
2022/05/09 03:47:42;;;;;;;1.10;1.10;;;15.80;75.10;;;;;;4956890;28;20561;-67
2022/05/09 03:50:13;;;;;;;1.10;1.10;;;15.80;75.10;;;;;;4956631;29;20483;-67
2022/05/09 03:52:39;;;;;;;1.00;1.00;;;15.80;75.00;;;;;;4956766;29;20533;-67
2022/05/09 03:55:07;;;;;;;1.03;0.93;;;15.80;75.00;;;;;;4956816;29;20451;-67
2022/05/09 03:57:34;;;;;;;0.80;0.80;;;15.70;75.10;;;;;;4956589;29;20510;-68
2022/05/09 04:00:05;;;;;;;1.00;1.00;;;15.80;75.00;;;;;;4956407;29;20581;-67
2022/05/09 04:02:32;;;;;;;0.83;0.83;;;15.80;75.00;;;;;;4956248;29;20578;-67
2022/05/09 04:04:58;;;;;;;1.00;1.00;;;15.80;75.00;;;;;;4956540;29;20591;-67
2022/05/09 04:07:26;;;;;;;1.00;1.00;;;15.80;75.10;;;;;;4956691;29;20450;-68
2022/05/09 04:09:53;;;;;;;0.80;0.80;;;15.80;75.30;;;;;;4957019;29;20451;-67
2022/05/09 04:12:20;;;;;;;1.00;1.00;;;15.80;75.30;;;;;;4957128;28;20554;-68
2022/05/09 04:17:30;;;;;;;1.20;1.20;;;15.80;75.40;;;;;;4956305;29;20410;-68
2022/05/09 04:19:57;;;;;;;0.90;0.90;;;15.80;75.40;;;;;;4956473;29;20454;-68
2022/05/09 04:22:25;;;;;;;1.43;1.33;;;15.90;75.50;;;;;;4956055;29;20513;-67
2022/05/09 04:24:52;;;;;;;1.00;1.00;;;15.90;75.50;;;;;;4956405;29;20463;-68
2022/05/09 04:27:19;;;;;;;1.23;1.20;;;15.90;75.50;;;;;;4956338;29;20455;-68
2022/05/09 04:29:47;;;;;;;1.03;1.03;;;15.90;75.40;;;;;;4956540;29;20494;-67
2022/05/09 04:32:14;;;;;;;1.20;1.20;;;16.00;75.30;;;;;;4955926;29;20467;-67
2022/05/09 04:34:40;;;;;;;1.10;1.00;;;16.00;75.40;;;;;;4955992;28;20450;-67
2022/05/09 04:37:07;;;;;;;1.13;1.13;;;16.00;75.30;;;;;;4955936;29;20506;-66
2022/05/09 04:39:35;;;;;;;1.30;1.20;;;16.10;75.60;;;;;;4955665;29;20965;-67
2022/05/09 04:42:01;;;;;;;1.10;1.00;;;16.10;75.40;;;;;;4955577;28;20517;-67
2022/05/09 04:44:28;;;;;;;0.90;0.90;;;16.20;75.10;;;;;;4955789;29;20455;-68
2022/05/09 04:46:55;;;;;;;1.20;1.10;;;16.30;75.00;;;;;;4955499;29;21049;-67
2022/05/09 04:49:22;;;;;;;1.00;1.00;;;16.40;75.00;;;;;;4955362;29;20872;-68
2022/05/09 04:51:48;;;;;;;1.53;1.20;;;16.50;74.80;;;;;;4955179;29;20998;-68
2022/05/09 04:54:16;;;;;;;1.33;1.30;;;16.60;74.60;;;;;;4956173;29;20454;-69
2022/05/09 04:56:44;;;;;;;1.10;1.10;;;16.70;74.50;;;;;;4955682;29;20494;-67
2022/05/09 04:59:10;;;;;;;1.10;1.07;;;16.80;74.20;;;;;;4955699;29;20502;-67
2022/05/09 05:01:37;;;;;;;0.90;0.90;;;16.80;74.20;;;;;;4955193;29;20475;-68
2022/05/09 05:04:05;;;;;;;0.93;0.93;;;16.90;73.80;;;;;;4955203;29;21017;-68
2022/05/09 05:06:32;;;;;;;1.00;1.00;;;17.10;73.70;;;;;;4955325;29;20450;-67
2022/05/09 05:08:59;;;;;;;1.10;1.10;;;17.20;73.60;;;;;;4955333;29;20470;-67
2022/05/09 05:11:26;;;;;;;1.00;1.00;;;17.30;73.30;;;;;;4955060;28;20561;-67
2022/05/09 05:13:54;;;;;;;1.07;1.07;;;17.30;73.20;;;;;;4955398;29;20455;-68
2022/05/09 05:16:59;;;;;;;1.10;1.10;;;17.40;72.90;;;;;;4954851;29;20864;-67
2022/05/09 05:19:07;;;;;;;1.43;1.17;;;17.50;72.80;;;;;;4955006;29;20453;-68
2022/05/09 05:21:34;;;;;;;1.20;1.20;;;17.60;72.80;;;;;;4955237;29;20550;-67
2022/05/09 05:24:00;;;;;;;1.20;1.20;;;17.80;72.20;;;;;;4955412;29;20596;-67
2022/05/09 05:26:27;;;;;;;1.10;1.10;;;17.90;71.90;;;;;;4955262;29;20451;-69
2022/05/09 05:28:55;;;;;;;0.97;0.97;;;18.00;71.60;;;;;;4954776;28;20458;-68
2022/05/09 05:31:22;;;;;;;1.00;1.00;;;18.10;71.40;;;;;;4955182;29;20491;-69
2022/05/09 05:33:49;;;;;;;1.00;1.00;;;18.20;71.00;;;;;;4955350;29;20451;-69
2022/05/09 05:36:16;;;;;;;0.83;0.83;;;18.30;71.20;;;;;;4955029;29;20505;-67
2022/05/09 05:38:43;;;;;;;1.00;1.00;;;18.40;71.00;;;;;;4955058;29;20451;-67
2022/05/09 05:41:10;;;;;;;1.00;1.00;;;18.50;70.40;;;;;;4954836;28;20467;-69
2022/05/09 05:43:36;;;;;;;1.00;1.00;;;18.60;69.60;;;;;;4954444;29;20840;-68
2022/05/09 05:46:05;;;;;;;1.00;1.00;;;18.60;69.80;;;;;;4954558;29;21021;-68
2022/05/09 05:48:32;;;;;;;1.10;1.10;;;18.70;69.80;;;;;;4954985;29;20448;-69
2022/05/09 05:50:59;;;;;;;0.90;0.90;;;18.60;68.50;;;;;;4954815;29;20494;-69
2022/05/09 05:53:25;;;;;;;0.90;0.90;;;18.40;68.60;;;;;;4953868;29;20903;-69
2022/05/09 05:55:52;;;;;;;0.87;0.87;;;18.50;69.70;;;;;;4954954;29;20509;-67
2022/05/09 05:58:19;;;;;;;1.10;1.00;;;18.30;69.20;;;;;;4954773;29;20446;-67
2022/05/09 06:00:45;;;;;;;1.40;1.07;;;18.40;70.10;;;;;;4954507;28;20478;-69
2022/05/09 06:03:15;;;;;;;0.87;0.87;;;18.30;69.80;;;;;;4955506;29;20436;-67
2022/05/09 06:05:42;;;;;;;0.93;0.93;;;18.60;69.20;;;;;;4954846;29;20470;-68
2022/05/09 06:08:10;;;;;;;1.00;1.00;;;18.90;68.80;;;;;;4954879;29;20463;-68
2022/05/09 06:10:36;;;;;;;0.93;0.93;;;18.90;68.30;;;;;;4955367;29;20495;-67
2022/05/09 06:13:04;;;;;;;1.10;1.10;;;19.30;68.20;;;;;;4954640;29;20458;-68
2022/05/09 06:15:32;;;;;;;1.00;1.00;;;19.50;67.10;;;;;;4954622;29;20522;-68
2022/05/09 06:18:00;;;;;;;0.80;0.80;;;19.80;66.70;;;;;;4954679;28;20482;-69
2022/05/09 06:20:31;;;;;;;1.00;1.00;;;20.10;65.90;;;;;;4954478;29;20451;-69
2022/05/09 06:22:59;;;;;;;1.03;1.03;;;20.40;65.40;;;;;;4954626;29;20597;-68
2022/05/09 06:25:27;;;;;;;0.90;0.90;;;20.60;65.10;;;;;;4954474;28;20466;-68
2022/05/09 06:27:54;;;;;;;0.90;0.90;;;20.70;64.10;;;;;;4954713;29;20454;-68
2022/05/09 06:30:23;;;;;;;0.80;0.80;;;20.70;64.10;;;;;;4954354;29;20446;-67
2022/05/09 06:32:50;;;;;;;1.00;1.00;;;20.80;64.30;;;;;;4954542;29;20561;-68
2022/05/09 06:35:20;;;;;;;0.90;0.90;;;20.80;62.70;;;;;;4954906;28;20532;-68
2022/05/09 06:37:49;;;;;;;0.80;0.80;;;20.80;63.90;;;;;;4954655;29;20454;-68
2022/05/09 06:40:16;;;;;;;0.83;0.83;;;21.00;63.40;;;;;;4954202;29;20958;-68
2022/05/09 06:42:43;;;;;;;0.80;0.80;;;20.70;62.30;;;;;;4954366;29;20462;-70
2022/05/09 06:45:12;;;;;;;0.90;0.90;;;20.50;63.20;;;;;;4954424;29;20455;-68
2022/05/09 06:47:45;;;;;;;0.80;0.80;;;20.20;63.70;;;;;;4955269;29;20460;-69
2022/05/09 06:50:12;;;;;;;0.83;0.83;;;20.30;64.50;;;;;;4954459;28;20882;-68
2022/05/09 06:52:39;;;;;;;0.93;0.93;;;20.40;64.30;;;;;;4954321;29;20549;-68
2022/05/09 06:55:09;;;;;;;1.10;1.00;;;20.60;63.00;;;;;;4954435;29;20451;-68
2022/05/09 06:57:37;;;;;;;1.13;1.13;;;20.70;63.90;;;;;;4954346;28;20485;-69
2022/05/09 07:00:06;;;;;;;0.80;0.80;;;20.40;63.10;;;;;;4954315;29;20447;-69
2022/05/09 07:02:32;;;;;;;0.90;0.90;;;20.20;64.60;;;;;;4954609;28;20486;-68
2022/05/09 07:04:59;;;;;;;0.90;0.90;;;20.50;64.10;;;;;;4956148;28;20478;-68
2022/05/09 07:07:26;;;;;;;0.90;0.90;;;20.40;64.00;;;;;;4958373;29;20482;-69
2022/05/09 07:09:52;;;;;;;0.97;0.97;;;20.70;63.80;;;;;;4958536;29;20447;-69
2022/05/09 07:12:20;;;;;;;0.90;0.90;;;21.00;63.20;;;;;;4958261;29;20493;-68
2022/05/09 07:14:47;;;;;;;0.70;0.70;;;21.20;62.60;;;;;;4958227;29;20454;-70
2022/05/09 07:17:14;;;;;;;1.00;1.00;;;21.20;62.50;;;;;;4957780;29;20969;-69
2022/05/09 07:19:40;;;;;;;0.80;0.80;;;21.20;62.10;;;;;;4958654;28;20920;-69
2022/05/09 07:22:07;;;;;;;0.80;0.80;;;21.00;63.30;;;;;;4958268;28;20474;-69
2022/05/09 07:24:35;;;;;;;0.83;0.83;;;20.90;63.30;;;;;;4958178;28;20449;-69
2022/05/09 07:27:02;;;;;;;1.27;0.80;;;21.30;63.70;;;;;;4958293;29;20885;-69
2022/05/09 07:29:29;;;;;;;0.90;0.90;;;21.40;62.70;;;;;;4957863;29;20958;-68
2022/05/09 07:31:56;;;;;;;0.90;0.87;;;21.30;63.30;;;;;;4957977;29;20909;-69
2022/05/09 07:34:23;;;;;;;0.80;0.80;;;21.70;61.90;;;;;;4958365;29;20455;-69
2022/05/09 07:36:49;;;;;;;1.20;1.10;;;22.10;62.70;;;;;;4958046;28;20454;-68
2022/05/09 07:39:16;;;;;;;1.00;1.00;;;22.20;60.30;;;;;;4957846;29;20465;-68
2022/05/09 07:41:43;;;;;;;0.83;0.83;;;22.20;60.20;;;;;;4958521;28;20471;-69
2022/05/09 07:44:10;;;;;;;1.13;0.93;;;22.20;60.20;;;;;;4958024;28;20541;-68
2022/05/09 07:46:38;;;;;;;0.90;0.90;;;22.10;61.10;;;;;;4958454;29;20459;-69
2022/05/09 07:49:05;;;;;;;0.80;0.80;;;21.70;61.10;;;;;;4957154;29;20451;-69
2022/05/09 07:51:34;;;;;;;0.87;0.87;;;21.50;62.70;;;;;;4956426;29;21007;-68
2022/05/09 07:54:00;;;;;;;0.80;0.80;;;21.70;62.80;;;;;;4956633;29;20843;-69
2022/05/09 07:56:27;;;;;;;0.93;0.93;;;21.50;61.80;;;;;;4956800;29;20450;-67
2022/05/09 07:58:54;;;;;;;0.93;0.90;;;21.50;62.60;;;;;;4956661;29;20505;-69
2022/05/09 08:01:20;;;;;;;1.17;1.10;;;21.80;62.20;;;;;;4956497;29;20549;-69
2022/05/09 08:03:48;;;;;;;1.10;1.10;;;21.20;62.80;;;;;;4957473;29;20463;-69
2022/05/09 08:06:15;;;;;;;1.43;0.80;;;21.50;63.60;;;;;;4957474;29;20451;-68
2022/05/09 08:08:43;;;;;;;1.20;1.10;;;21.90;61.70;;;;;;4957972;28;20509;-68
2022/05/09 08:11:11;;;;;;;1.03;0.90;;;22.00;61.40;;;;;;4956414;29;20479;-69
2022/05/09 08:13:39;;;;;;;1.00;0.97;;;22.10;60.40;;;;;;4956382;29;20463;-68
2022/05/09 08:16:07;;;;;;;1.10;1.00;;;22.20;60.80;;;;;;4955921;28;20451;-69
2022/05/09 08:18:34;;;;;;;1.07;1.07;;;22.30;61.40;;;;;;4955963;28;20533;-69
2022/05/09 08:21:03;;;;;;;0.90;0.80;;;22.40;61.30;;;;;;4955866;29;21054;-69
2022/05/09 08:23:31;;;;;;;0.93;0.93;;;22.50;60.80;;;;;;4956113;29;20464;-68
2022/05/09 08:25:58;;;;;;;0.93;0.93;;;22.70;59.30;;;;;;4956078;29;20452;-68
2022/05/09 08:28:25;;;;;;;0.90;0.90;;;22.90;58.70;;;;;;4956207;29;20482;-68
2022/05/09 08:30:52;;;;;;;1.00;0.80;;;22.90;59.60;;;;;;4955706;29;20482;-69
2022/05/09 08:33:22;;;;;;;1.10;1.10;;;22.10;58.70;;;;;;4955940;29;20508;-68
2022/05/09 08:35:50;;;;;;;0.90;0.90;;;22.00;60.40;;;;;;4955547;29;20576;-68
2022/05/09 08:38:19;;;;;;;0.90;0.90;;;21.90;62.30;;;;;;4955971;29;20465;-68
2022/05/09 08:40:58;;;;;;;1.00;1.00;;;22.10;61.60;;;;;;4955877;28;20474;-69
2022/05/09 08:43:40;;;;;;;0.80;0.80;;;22.20;62.00;;;;;;4955911;29;20423;-68
2022/05/09 08:46:14;;;;;;;0.90;0.90;;;22.30;60.40;;;;;;4955963;28;20445;-68
2022/05/09 08:48:57;;;;;;;0.80;0.80;;;22.70;59.30;;;;;;4955678;29;20503;-69
2022/05/09 08:51:39;;;;;;;0.87;0.87;;;22.60;57.80;;;;;;4955646;29;20498;-69
2022/05/09 08:54:12;;;;;;;0.97;0.97;;;22.20;58.80;;;;;;4955686;29;20530;-68
2022/05/09 08:56:39;;;;;;;1.07;1.07;;;22.20;60.30;;;;;;4955592;29;20503;-68
2022/05/09 08:59:11;;;;;;;0.87;0.87;;;22.50;59.70;;;;;;4955632;29;20509;-69
2022/05/09 09:01:42;;;;;;;1.10;1.10;;;22.70;59.40;;;;;;4955551;29;20494;-68
2022/05/09 09:04:20;;;;;;;0.77;0.77;;;22.60;61.60;;;;;;4955501;29;20431;-68
2022/05/09 09:07:01;;;;;;;1.07;1.00;;;22.40;58.70;;;;;;4955607;29;20439;-68
2022/05/09 09:09:41;;;;;;;0.90;0.90;;;22.60;60.20;;;;;;4955729;29;20498;-69
2022/05/09 09:12:20;;;;;;;0.70;0.70;;;22.80;59.60;;;;;;4954982;28;20986;-69
2022/05/09 09:14:58;;;;;;;0.73;0.70;;;22.90;57.70;;;;;;4955562;29;20435;-68
2022/05/09 09:17:37;;;;;;;0.80;0.80;;;22.50;57.40;;;;;;5110259;23;20510;-78
2022/05/09 09:20:14;;;;;;;0.80;0.80;;;22.10;59.10;;;;;;4995706;28;20503;-78
2022/05/09 09:22:56;;;;;;;0.80;0.80;;;21.80;59.50;;;;;;4995795;28;20433;-77
2022/05/09 09:25:49;;;;;;;1.10;1.03;;;21.50;61.30;;;;;;4996398;28;20481;-79
2022/05/09 09:28:18;;;;;;;0.70;0.70;;;21.80;62.20;;;;;;4996191;28;20449;-79
2022/05/09 09:30:47;;;;;;;0.80;0.80;;;22.10;60.40;;;;;;4996277;28;20511;-79
2022/05/09 09:33:15;;;;;;;0.73;0.73;;;22.20;62.30;;;;;;4995633;28;20553;-78
2022/05/09 09:35:48;;;;;;;0.83;0.83;;;22.70;59.90;;;;;;4996486;28;20527;-79
2022/05/09 09:38:23;;;;;;;0.80;0.80;;;22.90;58.90;;;;;;4996315;28;20429;-78
2022/05/09 09:40:51;;;;;;;1.10;0.90;;;22.80;57.60;;;;;;4996042;28;20978;-79
2022/05/09 09:43:18;;;;;;;1.20;1.10;;;22.50;59.10;;;;;;4995899;28;20940;-78
2022/05/09 09:45:49;;;;;;;0.93;0.90;;;22.50;58.00;;;;;;4995477;28;20486;-78
2022/05/09 09:48:20;;;;;;;0.80;0.80;;;22.50;58.50;;;;;;4996218;28;20909;-77
2022/05/09 09:50:56;;;;;;;0.90;0.90;;;22.10;58.40;;;;;;4995177;28;20433;-78
2022/05/09 09:53:35;;;;;;;0.83;0.80;;;22.10;59.80;;;;;;4996162;28;20469;-79
2022/05/09 09:56:08;;;;;;;0.80;0.80;;;22.40;58.80;;;;;;4996288;28;20469;-79
2022/05/09 09:58:38;;;;;;;0.83;0.83;;;22.50;57.70;;;;;;4995403;28;20469;-78
2022/05/09 10:01:08;;;;;;;0.70;0.60;;;22.50;58.20;;;;;;4996068;28;20449;-79
2022/05/09 10:03:37;;;;;;;0.70;0.70;;;22.80;57.60;;;;;;4999416;28;20496;-79
2022/05/09 10:06:14;;;;;;;0.90;0.90;;;23.00;57.80;;;;;;4998622;28;20976;-79
2022/05/09 10:08:42;;;;;;;0.83;0.80;;;23.20;59.20;;;;;;4997001;28;20441;-78
2022/05/09 10:11:13;;;;;;;0.70;0.70;;;23.10;56.90;;;;;;4994990;28;20448;-78
2022/05/09 10:13:43;;;;;;;0.70;0.70;;;22.60;57.40;;;;;;4994874;28;21009;-79
2022/05/09 10:16:12;;;;;;;0.80;0.80;;;22.60;57.50;;;;;;4993960;28;20485;-79
2022/05/09 10:18:42;;;;;;;0.93;0.93;;;22.80;57.20;;;;;;4994837;28;20516;-79
2022/05/09 10:21:17;;;;;;;1.47;0.80;;;22.70;55.80;;;;;;4994709;28;20457;-78
2022/05/09 10:26:38;;;;;;;0.80;0.80;;;22.50;58.20;;;;;;4994355;28;20456;-78
2022/05/09 10:29:07;;;;;;;0.80;0.80;;;22.50;58.00;;;;;;4994082;28;20457;-78
2022/05/09 10:31:39;;;;;;;0.70;0.70;;;22.80;57.50;;;;;;4993714;28;20808;-78
2022/05/09 10:34:08;;;;;;;0.90;0.90;;;22.90;56.20;;;;;;4994496;28;20487;-78
2022/05/09 10:36:40;;;;;;;0.83;0.83;;;22.60;57.20;;;;;;4993744;28;20464;-77
2022/05/09 10:39:12;;;;;;;0.80;0.80;;;22.60;57.70;;;;;;4994315;28;20848;-78
2022/05/09 10:41:43;;;;;;;0.80;0.80;;;22.80;58.30;;;;;;4998934;28;20429;-79
2022/05/09 10:44:15;;;;;;;1.17;0.83;;;22.90;59.80;;;;;;4999213;28;20528;-79
2022/05/09 10:46:48;;;;;;;0.70;0.70;;;23.20;59.60;;;;;;5000448;28;20523;-79
2022/05/09 10:49:24;;;;;;;0.80;0.80;;;23.60;58.00;;;;;;4998687;28;20484;-79
2022/05/09 10:51:59;;;;;;;0.87;0.87;;;23.90;56.70;;;;;;4999562;28;20521;-80
2022/05/09 10:54:30;;;;;;;0.70;0.70;;;23.80;57.00;;;;;;5000105;28;20440;-80
2022/05/09 10:57:05;;;;;;;0.90;0.80;;;23.80;57.50;;;;;;4997769;28;21069;-79
2022/05/09 10:59:36;;;;;;;0.80;0.80;;;24.10;57.40;;;;;;4998690;28;20441;-79
2022/05/09 11:02:12;;;;;;;0.80;0.80;;;24.40;55.20;;;;;;4999353;28;20803;-79
2022/05/09 11:04:39;;;;;;;0.80;0.73;;;24.30;55.70;;;;;;5007078;28;20432;-80
2022/05/09 11:07:18;;;;;;;0.70;0.70;;;24.40;56.80;;;;;;5011905;28;20472;-80
2022/05/09 11:09:57;;;;;;;0.80;0.80;;;24.80;56.90;;;;;;5012238;28;20429;-79
2022/05/09 11:12:53;;;;;;;0.80;0.73;;;25.10;52.80;;;;;;5011482;28;20457;-78
2022/05/09 11:15:31;;;;;;;0.80;0.80;;;25.20;53.70;;;;;;5009012;28;20457;-79
2022/05/09 11:18:25;;;;;;;0.73;0.73;;;25.10;54.70;;;;;;5011979;28;20464;-78
2022/05/09 11:21:01;;;;;;;0.70;0.60;;;25.10;53.50;;;;;;5009632;28;20549;-78
2022/05/09 11:23:33;;;;;;;0.80;0.80;;;25.20;53.50;;;;;;5011711;28;20433;-79
2022/05/09 11:26:13;;;;;;;0.80;0.80;;;25.40;52.30;;;;;;5011830;28;20454;-78
2022/05/09 11:29:00;;;;;;;0.90;0.90;;;25.30;53.90;;;;;;5012715;28;20449;-79
2022/05/09 11:31:34;;;;;;;0.93;0.80;;;24.90;53.50;;;;;;5012346;28;20429;-80
2022/05/09 11:34:14;;;;;;;0.70;0.70;;;24.70;53.10;;;;;;5012605;28;20477;-80
2022/05/09 11:36:59;;;;;;;0.70;0.70;;;24.80;54.30;;;;;;5012733;28;20468;-79
2022/05/09 11:39:37;;;;;;;0.70;0.70;;;25.20;54.10;;;;;;5012911;28;20449;-79
2022/05/09 11:45:14;;;;;;;0.60;0.60;;;25.00;52.10;;;;;;5012761;28;20441;-80
2022/05/09 11:47:51;;;;;;;0.90;0.90;;;24.80;52.60;;;;;;5011993;28;20469;-78
2022/05/09 11:50:25;;;;;;;0.93;0.83;;;24.50;52.20;;;;;;5012581;28;20445;-80
2022/05/09 11:52:52;;;;;;;1.00;0.70;;;24.20;53.50;;;;;;5011295;28;20564;-80
2022/05/09 11:55:21;;;;;;;0.90;0.90;;;24.40;54.80;;;;;;5011349;28;20512;-79
2022/05/09 11:57:52;;;;;;;0.70;0.70;;;24.70;52.90;;;;;;5012642;28;20459;-80
2022/05/09 12:00:48;;;;;;;0.70;0.70;;;24.50;54.30;;;;;;5011817;28;20509;-79
2022/05/09 12:03:36;;;;;;;0.70;0.70;;;24.50;53.80;;;;;;5011113;28;20450;-78
2022/05/09 12:06:04;;;;;;;0.80;0.70;;;24.70;53.80;;;;;;5011906;28;20465;-80
2022/05/09 12:08:43;;;;;;;0.80;0.73;;;24.90;53.50;;;;;;5010204;28;20940;-79
2022/05/09 12:11:30;;;;;;;0.80;0.70;;;25.00;52.10;;;;;;5010387;28;20523;-79
2022/05/09 12:13:58;;;;;;;1.00;0.90;;;25.20;50.60;;;;;;5011208;28;20508;-79
2022/05/09 12:16:52;;;;;;;0.77;0.73;;;25.00;50.50;;;;;;5011242;28;20477;-80
2022/05/09 12:19:32;;;;;;;0.70;0.70;;;25.00;51.30;;;;;;5004207;28;20827;-79
2022/05/09 12:22:33;;;;;;;0.70;0.70;;;25.20;52.20;;;;;;4996087;28;20908;-79
2022/05/09 12:25:00;;;;;;;0.70;0.70;;;25.20;51.00;;;;;;4994683;28;20452;-78
2022/05/09 12:27:45;;;;;;;0.80;0.70;;;25.50;51.90;;;;;;4996439;28;20524;-79
2022/05/09 12:30:35;;;;;;;0.80;0.80;;;25.80;50.90;;;;;;4989677;28;20468;-79
2022/05/09 12:33:09;;;;;;;0.70;0.70;;;25.50;50.30;;;;;;4998201;28;20477;-78
2022/05/09 12:35:36;;;;;;;0.70;0.70;;;25.00;50.50;;;;;;4997205;28;20437;-79
2022/05/09 12:38:03;;;;;;;0.70;0.70;;;25.20;53.40;;;;;;4996433;28;21018;-79
2022/05/09 12:40:30;;;;;;;0.70;0.70;;;25.40;51.00;;;;;;4995302;28;20449;-78
2022/05/09 12:43:01;;;;;;;0.70;0.70;;;25.50;50.30;;;;;;4997035;28;20446;-79
2022/05/09 12:45:29;;;;;;;0.60;0.60;;;25.60;50.70;;;;;;4998770;28;20456;-79
2022/05/09 12:47:56;;;;;;;0.70;0.70;;;25.40;51.20;;;;;;4999226;28;20452;-79
2022/05/09 12:50:27;;;;;;;0.70;0.70;;;25.20;50.40;;;;;;4997362;28;20499;-78
2022/05/09 12:52:57;;;;;;;0.70;0.70;;;24.80;51.40;;;;;;4995416;28;20485;-78
2022/05/09 12:58:23;;;;;;;0.87;0.83;;;25.00;51.50;;;;;;5009204;28;20462;-78
2022/05/09 13:00:50;;;;;;;0.70;0.70;;;24.90;51.50;;;;;;5009170;28;20478;-78
2022/05/09 13:03:17;;;;;;;0.90;0.60;;;25.10;51.20;;;;;;5008428;28;20456;-77
2022/05/09 13:05:46;;;;;;;1.00;0.80;;;25.30;50.80;;;;;;5008991;28;20480;-78
2022/05/09 13:08:14;;;;;;;1.37;0.80;;;25.50;51.10;;;;;;5008810;28;20472;-78
2022/05/09 13:10:48;;;;;;;0.70;0.70;;;25.80;50.50;;;;;;5009043;28;20453;-77
2022/05/09 13:13:26;;;;;;;0.90;0.80;;;25.50;48.60;;;;;;5009587;28;20833;-78
2022/05/09 13:15:53;;;;;;;0.80;0.70;;;25.40;50.80;;;;;;5008979;28;20472;-78
2022/05/09 13:18:25;;;;;;;0.93;0.70;;;25.70;50.10;;;;;;5008999;28;20426;-79
2022/05/09 13:20:55;;;;;;;0.60;0.60;;;25.90;50.60;;;;;;5009328;28;20441;-79
2022/05/09 13:23:32;;;;;;;0.70;0.70;;;26.20;49.40;;;;;;5009082;28;20441;-79
2022/05/09 13:26:01;;;;;;;0.97;0.90;;;26.00;48.20;;;;;;5009156;28;20546;-78
2022/05/09 13:28:32;;;;;;;0.70;0.70;;;25.80;48.80;;;;;;5009055;28;20433;-79
2022/05/09 13:30:59;;;;;;;0.70;0.60;;;25.70;49.40;;;;;;5001414;28;20967;-79
2022/05/09 13:33:28;;;;;;;0.70;0.70;;;25.60;50.10;;;;;;4995009;28;20488;-78
2022/05/09 13:35:59;;;;;;;0.80;0.70;;;25.60;49.30;;;;;;4995116;28;20477;-79
2022/05/09 13:38:30;;;;;;;0.70;0.70;;;25.70;48.40;;;;;;4995433;28;20501;-78
2022/05/09 13:41:03;;;;;;;0.70;0.60;;;25.60;47.70;;;;;;4994926;28;20788;-78
2022/05/09 13:43:34;;;;;;;0.70;0.70;;;25.30;46.50;;;;;;4999736;28;20500;-78
2022/05/09 13:46:02;;;;;;;0.60;0.60;;;25.30;47.40;;;;;;5008911;28;20476;-79
2022/05/09 13:48:29;;;;;;;0.60;0.60;;;25.20;46.60;;;;;;5008921;28;20464;-78
2022/05/09 13:50:58;;;;;;;0.70;0.70;;;25.40;46.60;;;;;;5008833;28;20937;-78
2022/05/09 13:53:28;;;;;;;0.80;0.80;;;25.20;46.30;;;;;;5008624;28;20477;-79
2022/05/09 13:55:58;;;;;;;0.70;0.60;;;25.00;48.80;;;;;;5009159;28;20481;-79
2022/05/09 13:58:28;;;;;;;0.80;0.70;;;25.30;48.90;;;;;;5008633;28;20456;-79
2022/05/09 14:00:55;;;;;;;0.70;0.70;;;25.50;48.20;;;;;;5008909;28;20520;-79
2022/05/09 14:03:27;;;;;;;0.80;0.80;;;25.30;48.50;;;;;;5008745;28;20455;-79
2022/05/09 14:05:55;;;;;;;0.67;0.60;;;25.70;49.80;;;;;;5011742;28;20473;-78
2022/05/09 14:08:24;;;;;;;0.80;0.80;;;26.10;48.30;;;;;;5011954;28;20453;-79
2022/05/09 14:11:00;;;;;;;0.70;0.70;;;26.40;47.60;;;;;;5008858;28;20457;-77
2022/05/09 14:13:33;;;;;;;0.87;0.87;;;26.70;47.20;;;;;;5008660;28;20472;-78
2022/05/09 14:16:04;;;;;;;0.80;0.80;;;26.20;48.40;;;;;;5010895;28;20480;-79
2022/05/09 14:18:35;;;;;;;0.70;0.70;;;26.30;48.40;;;;;;5012525;28;20429;-79
2022/05/09 14:21:06;;;;;;;1.37;0.80;;;26.20;48.40;;;;;;5015414;28;20443;-79
2022/05/09 14:23:35;;;;;;;0.70;0.67;;;26.30;49.50;;;;;;5012688;28;20436;-79
2022/05/09 14:31:54;;;;;;;0.60;0.60;;;26.40;47.90;;;;;;5012330;28;20412;-78
2022/05/09 14:34:34;;;;;;;0.80;0.63;;;26.50;47.80;;;;;;4998263;28;20477;-79
2022/05/09 14:37:27;;;;;;;0.63;0.60;;;26.70;47.20;;;;;;4998433;28;20527;-79
2022/05/09 14:40:14;;;;;;;0.90;0.70;;;26.90;46.50;;;;;;4996363;28;20468;-79
2022/05/09 14:43:00;;;;;;;0.80;0.70;;;27.30;46.20;;;;;;4997812;28;20869;-78
2022/05/09 14:45:28;;;;;;;0.70;0.70;;;27.50;44.80;;;;;;4997865;28;20421;-78
2022/05/09 14:48:00;;;;;;;0.80;0.67;;;27.20;45.20;;;;;;4997689;28;20449;-78
2022/05/09 14:50:30;;;;;;;0.70;0.63;;;27.30;44.90;;;;;;4997281;28;20921;-79
2022/05/09 14:53:05;;;;;;;0.70;0.70;;;27.40;46.30;;;;;;4998273;28;20436;-79
2022/05/09 14:58:37;;;;;;;0.63;0.60;;;27.00;45.60;;;;;;4998078;28;20441;-79
2022/05/09 15:01:06;;;;;;;0.70;0.70;;;26.70;47.10;;;;;;4997632;28;20444;-79
2022/05/09 15:03:35;;;;;;;0.63;0.60;;;27.00;46.90;;;;;;4997395;28;20449;-79
2022/05/09 15:06:03;;;;;;;0.60;0.60;;;27.40;46.90;;;;;;4997878;28;20471;-78
2022/05/09 15:08:30;;;;;;;0.60;0.60;;;27.20;45.40;;;;;;4998036;28;20560;-79
2022/05/09 15:10:59;;;;;;;0.70;0.70;;;27.00;47.10;;;;;;4997201;28;20463;-79
2022/05/09 15:13:27;;;;;;;0.80;0.70;;;27.40;46.80;;;;;;4997202;28;20493;-79
2022/05/09 15:18:26;;;;;;;0.77;0.70;;;28.40;45.10;;;;;;4976141;28;20950;-70
2022/05/09 15:20:54;;;;;;;0.77;0.77;;;28.40;44.00;;;;;;4977394;28;20453;-70
2022/05/09 15:23:21;;;;;;;0.80;0.77;;;28.30;44.00;;;;;;4977297;28;20480;-70
2022/05/09 15:25:51;;;;;;;0.70;0.70;;;28.10;44.60;;;;;;4977394;28;20445;-72
2022/05/09 15:28:20;;;;;;;1.20;0.70;;;27.70;44.80;;;;;;4976969;28;20458;-69
2022/05/09 15:30:48;;;;;;;0.80;0.80;;;27.10;45.60;;;;;;4977400;28;20508;-70
2022/05/09 15:33:15;;;;;;;0.97;0.70;;;26.70;46.00;;;;;;4976652;28;20472;-70
2022/05/09 15:35:43;;;;;;;1.33;0.70;;;26.50;46.50;;;;;;4976766;28;20465;-70
2022/05/09 15:38:10;;;;;;;0.93;0.93;;;26.50;46.70;;;;;;4976211;28;20990;-70
2022/05/09 15:40:39;;;;;;;0.73;0.70;;;26.40;47.00;;;;;;4976687;28;20461;-70
2022/05/09 15:43:07;;;;;;;0.70;0.70;;;26.30;46.60;;;;;;4976329;28;20504;-70
2022/05/09 15:45:36;;;;;;;0.70;0.70;;;26.40;46.80;;;;;;4976583;28;20449;-69
2022/05/09 15:48:04;;;;;;;0.80;0.70;;;26.40;46.60;;;;;;4976361;28;20481;-70
2022/05/09 15:50:31;;;;;;;0.70;0.70;;;26.30;47.00;;;;;;4976438;28;20537;-69
2022/05/09 15:52:58;;;;;;;0.70;0.70;;;26.30;46.90;;;;;;4976502;28;20457;-70
2022/05/09 15:55:25;;;;;;;0.80;0.70;;;26.30;47.00;;;;;;4976398;28;20489;-68
2022/05/09 15:57:54;;;;;;;0.70;0.60;;;26.30;48.10;;;;;;4976244;28;20470;-70
2022/05/09 16:00:21;;;;;;;0.67;0.60;;;26.20;48.00;;;;;;4976252;28;20771;-69
2022/05/09 16:02:51;;;;;;;0.70;0.67;;;26.20;47.90;;;;;;4976319;28;20457;-70
2022/05/09 16:05:18;;;;;;;0.70;0.70;;;26.10;48.20;;;;;;4976215;28;20482;-69
2022/05/09 16:13:16;;;;;;;0.70;0.70;;;25.60;48.30;;;;;;4976146;28;20406;-71
2022/05/09 16:15:43;;;;;;;0.80;0.80;;;25.30;49.40;;;;;;4976183;28;20454;-71
2022/05/09 16:18:19;;;;;;;0.70;0.60;;;25.30;48.80;;;;;;4975435;28;20473;-70
2022/05/09 16:20:46;;;;;;;0.70;0.70;;;25.50;48.40;;;;;;4975671;28;20777;-69
2022/05/09 16:23:13;;;;;;;0.70;0.60;;;25.30;48.80;;;;;;4975650;28;20445;-70
2022/05/09 16:25:42;;;;;;;0.70;0.70;;;25.10;48.90;;;;;;4975673;28;20829;-70
2022/05/09 16:28:14;;;;;;;0.70;0.70;;;25.00;48.90;;;;;;4975793;28;20470;-70
2022/05/09 16:30:41;;;;;;;0.80;0.80;;;24.70;48.80;;;;;;4975367;28;20845;-70
2022/05/09 16:33:09;;;;;;;0.70;0.70;;;24.50;49.70;;;;;;4975469;28;20442;-70
2022/05/09 16:35:37;;;;;;;0.70;0.70;;;24.50;50.00;;;;;;4975027;28;20576;-70